Time;durP1;ratioP1;P1;durP2;ratioP2;P2;SDS_P1;SDS_P2;PMS_P1;PMS_P2;Temp;Humidity;BMP_temperature;BMP_pressure;BME280_temperature;BME280_humidity;BME280_pressure;Samples;Min_cycle;Max_cycle;Signal;HPM_P1;HPM_P2
2022/02/13 00:01:02;;;;;;;25.47;14.57;;;3.00;73.50;;;;;;5018728;28;20216;-66
2022/02/13 00:03:30;;;;;;;25.37;13.73;;;3.00;73.80;;;;;;5011369;28;20296;-66
2022/02/13 00:05:57;;;;;;;29.00;13.77;;;3.00;73.50;;;;;;5008668;28;20240;-66
2022/02/13 00:08:24;;;;;;;19.83;13.23;;;2.90;73.20;;;;;;5003645;28;20216;-67
2022/02/13 00:11:11;;;;;;;23.43;13.60;;;2.80;73.50;;;;;;5009107;28;20220;-67
2022/02/13 00:13:38;;;;;;;24.07;13.67;;;2.80;74.20;;;;;;5013256;28;20282;-67
2022/02/13 00:16:06;;;;;;;28.43;13.40;;;2.80;74.90;;;;;;4999925;28;20232;-67
2022/02/13 00:18:33;;;;;;;19.27;13.03;;;2.80;75.10;;;;;;4997717;28;20200;-67
2022/02/13 00:21:00;;;;;;;26.20;13.57;;;2.80;75.10;;;;;;5007597;28;20266;-67
2022/02/13 00:23:27;;;;;;;23.10;12.93;;;2.80;75.20;;;;;;5006630;28;20628;-67
2022/02/13 00:25:54;;;;;;;23.23;11.77;;;2.90;75.20;;;;;;5007734;28;20603;-67
2022/02/13 00:28:21;;;;;;;19.90;12.87;;;2.80;75.30;;;;;;5004824;28;20234;-67
2022/02/13 00:30:49;;;;;;;21.53;12.60;;;2.80;75.40;;;;;;5003460;28;20644;-67
2022/02/13 00:33:16;;;;;;;25.67;12.77;;;2.80;75.40;;;;;;5005663;28;20570;-67
2022/02/13 00:35:46;;;;;;;20.13;12.77;;;2.80;75.60;;;;;;5004597;28;20715;-66
2022/02/13 00:38:14;;;;;;;27.10;13.73;;;2.80;75.70;;;;;;5007691;28;20231;-66
2022/02/13 00:40:41;;;;;;;22.27;13.20;;;2.80;75.60;;;;;;5008831;28;20207;-65
2022/02/13 00:43:09;;;;;;;24.40;13.43;;;2.70;75.70;;;;;;5008878;28;20201;-65
2022/02/13 00:45:36;;;;;;;21.67;12.57;;;2.70;75.50;;;;;;5011182;28;20217;-65
2022/02/13 00:48:04;;;;;;;19.97;12.67;;;2.60;75.70;;;;;;5008037;28;20204;-67
2022/02/13 00:50:32;;;;;;;21.23;11.87;;;2.60;76.00;;;;;;5020252;28;20200;-67
2022/02/13 00:52:59;;;;;;;21.23;11.87;;;2.60;76.40;;;;;;5007671;28;20212;-67
2022/02/13 00:55:27;;;;;;;21.90;11.47;;;2.60;76.50;;;;;;5009679;28;20240;-67
2022/02/13 00:57:54;;;;;;;20.00;11.10;;;2.70;76.00;;;;;;5014167;28;20244;-67
2022/02/13 01:00:21;;;;;;;20.93;12.27;;;2.70;75.90;;;;;;5009788;28;20244;-67
2022/02/13 01:02:49;;;;;;;19.23;10.93;;;2.70;75.90;;;;;;5013105;28;20200;-67
2022/02/13 01:05:17;;;;;;;21.70;12.60;;;2.70;75.90;;;;;;5009339;28;20236;-67
2022/02/13 01:07:45;;;;;;;16.93;11.70;;;2.70;75.80;;;;;;5012517;28;20204;-67
2022/02/13 01:10:12;;;;;;;17.33;11.67;;;2.60;75.60;;;;;;5013527;28;20224;-67
2022/02/13 01:12:40;;;;;;;21.50;12.83;;;2.60;75.80;;;;;;5011275;28;20208;-67
2022/02/13 01:15:07;;;;;;;24.60;12.27;;;2.60;76.10;;;;;;5011513;28;20215;-67
2022/02/13 01:17:35;;;;;;;27.20;12.93;;;2.50;76.10;;;;;;5012418;28;20224;-65
2022/02/13 01:20:03;;;;;;;22.87;12.43;;;2.50;76.00;;;;;;5013931;28;20200;-65
2022/02/13 01:22:30;;;;;;;22.80;12.77;;;2.50;76.10;;;;;;5013538;28;20204;-65
2022/02/13 01:24:57;;;;;;;21.20;12.07;;;2.50;75.80;;;;;;5018257;28;20207;-65
2022/02/13 01:27:25;;;;;;;19.33;12.10;;;2.40;75.40;;;;;;5003373;28;20656;-66
2022/02/13 01:29:52;;;;;;;21.47;11.83;;;2.40;75.70;;;;;;5012506;28;20215;-66
2022/02/13 01:32:20;;;;;;;16.83;11.77;;;2.30;75.90;;;;;;5017782;28;20216;-66
2022/02/13 01:34:47;;;;;;;20.00;12.40;;;2.30;76.20;;;;;;5012894;28;20648;-66
2022/02/13 01:37:15;;;;;;;22.37;12.00;;;2.30;76.30;;;;;;5014738;28;20251;-65
2022/02/13 01:39:45;;;;;;;19.93;12.50;;;2.30;76.50;;;;;;5012041;28;20707;-66
2022/02/13 01:42:15;;;;;;;29.17;11.23;;;2.30;76.70;;;;;;5019316;28;20595;-66
2022/02/13 01:44:44;;;;;;;19.10;11.33;;;2.30;76.60;;;;;;5016616;28;20204;-67
2022/02/13 01:47:12;;;;;;;21.40;12.33;;;2.20;76.20;;;;;;5018909;28;20602;-66
2022/02/13 01:49:41;;;;;;;20.47;11.83;;;2.30;76.20;;;;;;5017395;28;20307;-66
2022/02/13 01:52:11;;;;;;;20.33;12.87;;;2.20;76.40;;;;;;5013642;28;20212;-66
2022/02/13 01:54:39;;;;;;;21.67;11.93;;;2.30;76.60;;;;;;5021736;28;20325;-66
2022/02/13 01:57:10;;;;;;;21.20;12.50;;;2.30;76.70;;;;;;5019671;28;20232;-66
2022/02/13 01:59:41;;;;;;;21.80;13.07;;;2.30;76.80;;;;;;5017779;28;20204;-66
2022/02/13 02:02:12;;;;;;;21.00;12.93;;;2.30;76.90;;;;;;5016769;28;20237;-66
2022/02/13 02:04:43;;;;;;;25.03;13.47;;;2.30;77.20;;;;;;5017559;28;20756;-66
2022/02/13 02:07:10;;;;;;;24.73;13.30;;;2.30;77.20;;;;;;5019115;28;20707;-66
2022/02/13 02:09:44;;;;;;;22.00;14.37;;;2.30;77.40;;;;;;5021296;28;20670;-66
2022/02/13 02:12:12;;;;;;;21.00;13.53;;;2.30;77.60;;;;;;5005056;28;20207;-66
2022/02/13 02:14:43;;;;;;;22.10;13.50;;;2.30;77.90;;;;;;5017685;28;20221;-66
2022/02/13 02:17:11;;;;;;;23.93;13.03;;;2.30;78.00;;;;;;5017146;28;20234;-66
2022/02/13 02:19:41;;;;;;;21.03;12.77;;;2.30;78.00;;;;;;5004450;28;20204;-66
2022/02/13 02:22:14;;;;;;;23.33;13.53;;;2.30;77.90;;;;;;5019455;28;20268;-66
2022/02/13 02:24:45;;;;;;;19.60;12.77;;;2.30;78.00;;;;;;5011261;28;20216;-66
2022/02/13 02:27:16;;;;;;;25.93;14.77;;;2.30;78.10;;;;;;5017549;28;20228;-66
2022/02/13 02:29:43;;;;;;;23.13;13.83;;;2.30;77.70;;;;;;5006274;28;20212;-66
2022/02/13 02:32:12;;;;;;;25.13;13.53;;;2.30;77.70;;;;;;5005626;28;20232;-67
2022/02/13 02:34:41;;;;;;;22.53;13.93;;;2.20;77.90;;;;;;5011271;28;20263;-66
2022/02/13 02:37:10;;;;;;;23.83;13.47;;;2.20;78.00;;;;;;5020540;28;20278;-66
2022/02/13 02:39:38;;;;;;;21.47;13.50;;;2.10;78.10;;;;;;5012804;28;20535;-66
2022/02/13 02:42:11;;;;;;;25.10;15.10;;;2.10;78.40;;;;;;5018693;28;20197;-67
2022/02/13 02:44:40;;;;;;;22.33;13.17;;;2.10;78.60;;;;;;5018730;28;20288;-67
2022/02/13 02:47:08;;;;;;;22.27;15.80;;;2.10;78.90;;;;;;5036434;28;20200;-66
2022/02/13 02:49:36;;;;;;;20.87;14.70;;;2.10;78.90;;;;;;5017405;28;20205;-67
2022/02/13 02:52:05;;;;;;;20.13;14.73;;;2.10;79.10;;;;;;5016173;28;20543;-66
2022/02/13 02:54:33;;;;;;;21.63;13.30;;;2.10;79.10;;;;;;5012745;28;20210;-66
2022/02/13 02:57:01;;;;;;;21.90;14.77;;;2.10;79.40;;;;;;5018066;28;20334;-66
2022/02/13 03:03:19;;;;;;;21.70;14.97;;;2.10;79.40;;;;;;5020452;28;20279;-67
2022/02/13 03:05:49;;;;;;;27.20;14.53;;;2.10;79.80;;;;;;5012537;28;20287;-67
2022/02/13 03:08:17;;;;;;;22.47;13.77;;;2.00;80.00;;;;;;5019485;28;20262;-66
2022/02/13 03:10:47;;;;;;;20.30;13.47;;;2.00;79.80;;;;;;5014217;28;20207;-66
2022/02/13 03:13:16;;;;;;;23.97;14.33;;;2.00;79.80;;;;;;5016954;28;20208;-67
2022/02/13 03:15:44;;;;;;;22.03;14.33;;;2.00;79.90;;;;;;5019848;28;20220;-66
2022/02/13 03:18:12;;;;;;;22.90;15.67;;;2.00;80.10;;;;;;5009915;28;20555;-66
2022/02/13 03:20:40;;;;;;;25.60;14.20;;;1.90;79.60;;;;;;5016550;28;20205;-66
2022/02/13 03:23:09;;;;;;;19.13;13.73;;;1.90;79.80;;;;;;5013086;28;20303;-67
2022/02/13 03:25:37;;;;;;;22.17;14.33;;;1.80;80.30;;;;;;5012791;28;20228;-66
2022/02/13 03:28:07;;;;;;;23.97;14.70;;;1.80;80.20;;;;;;5017366;28;20219;-66
2022/02/13 03:30:35;;;;;;;24.30;13.63;;;1.80;80.00;;;;;;5019901;28;20205;-66
2022/02/13 03:33:05;;;;;;;24.37;14.73;;;1.70;79.50;;;;;;5020045;28;20202;-66
2022/02/13 03:35:33;;;;;;;24.90;14.67;;;1.70;79.40;;;;;;5018899;28;20312;-66
2022/02/13 03:38:03;;;;;;;24.93;14.27;;;1.70;79.50;;;;;;5002765;28;20647;-66
2022/02/13 03:40:31;;;;;;;22.13;13.33;;;1.70;79.50;;;;;;5021233;28;20192;-66
2022/02/13 03:42:59;;;;;;;18.93;13.33;;;1.60;79.70;;;;;;5018008;28;20562;-67
2022/02/13 03:45:27;;;;;;;21.30;13.57;;;1.60;79.50;;;;;;5013396;28;20573;-66
2022/02/13 03:47:55;;;;;;;26.33;14.57;;;1.60;79.60;;;;;;5017428;28;20231;-67
2022/02/13 03:50:28;;;;;;;21.17;13.43;;;1.50;79.60;;;;;;5018744;28;20211;-66
2022/02/13 03:52:59;;;;;;;24.87;13.90;;;1.50;79.80;;;;;;5020755;28;20219;-66
2022/02/13 03:55:27;;;;;;;24.50;15.00;;;1.50;80.00;;;;;;5012658;28;20215;-66
2022/02/13 03:57:55;;;;;;;19.27;14.20;;;1.50;80.10;;;;;;5018830;28;20305;-66
2022/02/13 04:00:23;;;;;;;23.23;13.93;;;1.50;80.30;;;;;;5015628;28;20239;-66
2022/02/13 04:02:55;;;;;;;21.20;13.70;;;1.50;80.70;;;;;;5017565;28;20200;-66
2022/02/13 04:05:24;;;;;;;19.70;12.60;;;1.50;80.90;;;;;;5019533;28;20207;-67
2022/02/13 04:07:52;;;;;;;27.03;14.73;;;1.40;80.30;;;;;;5018425;28;20216;-66
2022/02/13 04:10:20;;;;;;;17.57;11.90;;;1.40;80.40;;;;;;5017469;28;20301;-66
2022/02/13 04:12:48;;;;;;;23.83;14.03;;;1.40;80.70;;;;;;5016298;28;20514;-65
2022/02/13 04:15:16;;;;;;;20.13;12.30;;;1.40;80.80;;;;;;5009327;28;20276;-65
2022/02/13 04:18:24;;;;;;;22.67;12.73;;;1.40;80.70;;;;;;5017954;28;20683;-65
2022/02/13 04:20:52;;;;;;;19.37;13.30;;;1.40;80.60;;;;;;5022256;28;20208;-65
2022/02/13 04:23:19;;;;;;;19.13;13.00;;;1.40;80.40;;;;;;5019009;28;20649;-66
2022/02/13 04:25:47;;;;;;;20.43;13.80;;;1.40;80.40;;;;;;5013357;28;20210;-65
2022/02/13 04:28:16;;;;;;;19.17;13.53;;;1.30;80.50;;;;;;5009811;28;20228;-66
2022/02/13 04:30:43;;;;;;;21.87;14.33;;;1.30;80.50;;;;;;5010536;28;20208;-66
2022/02/13 04:33:11;;;;;;;22.03;13.17;;;1.30;80.50;;;;;;5004847;28;20200;-66
2022/02/13 04:35:40;;;;;;;20.70;14.10;;;1.30;80.60;;;;;;5012707;28;20243;-66
2022/02/13 04:38:08;;;;;;;18.63;13.90;;;1.30;80.60;;;;;;5002627;28;20238;-65
2022/02/13 04:40:35;;;;;;;18.43;13.60;;;1.30;80.70;;;;;;5007864;28;20300;-65
2022/02/13 04:43:03;;;;;;;21.73;14.33;;;1.20;80.80;;;;;;5006702;28;20200;-65
2022/02/13 04:45:30;;;;;;;20.20;14.80;;;1.20;81.00;;;;;;5007582;28;20201;-65
2022/02/13 04:47:57;;;;;;;20.37;14.37;;;1.20;81.30;;;;;;5008205;28;20285;-65
2022/02/13 04:50:26;;;;;;;17.97;12.73;;;1.30;81.70;;;;;;5011965;28;20223;-65
2022/02/13 04:52:55;;;;;;;22.20;13.67;;;1.30;82.00;;;;;;5001862;28;20204;-65
2022/02/13 04:55:22;;;;;;;29.70;14.37;;;1.30;82.00;;;;;;5004695;28;20214;-65
2022/02/13 04:57:50;;;;;;;21.40;12.97;;;1.30;82.00;;;;;;5009941;28;20312;-65
2022/02/13 05:00:18;;;;;;;21.70;14.30;;;1.30;82.90;;;;;;5008039;28;20574;-67
2022/02/13 05:02:46;;;;;;;19.93;13.83;;;1.30;82.30;;;;;;5003925;28;20279;-67
2022/02/13 05:05:14;;;;;;;20.93;14.10;;;1.30;82.50;;;;;;5007837;28;20691;-66
2022/02/13 05:07:41;;;;;;;25.67;14.27;;;1.30;82.50;;;;;;5010492;28;20535;-66
2022/02/13 05:10:08;;;;;;;22.00;14.43;;;1.40;82.60;;;;;;5002429;28;20303;-65
2022/02/13 05:12:36;;;;;;;24.13;13.93;;;1.40;82.60;;;;;;5011673;28;20258;-65
2022/02/13 05:15:03;;;;;;;21.67;12.47;;;1.40;83.30;;;;;;5001051;28;20393;-65
2022/02/13 05:17:34;;;;;;;19.37;12.47;;;1.40;82.20;;;;;;5006006;28;20219;-65
2022/02/13 05:20:05;;;;;;;22.37;13.70;;;1.40;81.70;;;;;;5012491;28;20200;-66
2022/02/13 05:22:34;;;;;;;18.17;13.00;;;1.30;81.20;;;;;;5003245;28;20615;-66
2022/02/13 05:25:02;;;;;;;28.00;14.60;;;1.30;81.10;;;;;;5002206;28;20633;-66
2022/02/13 05:27:29;;;;;;;18.60;13.23;;;1.30;81.00;;;;;;5005707;28;20511;-67
2022/02/13 05:29:56;;;;;;;19.07;12.87;;;1.20;81.10;;;;;;5007222;28;20299;-67
2022/02/13 05:32:23;;;;;;;24.40;13.57;;;1.20;81.10;;;;;;5018422;28;20365;-67
2022/02/13 05:34:50;;;;;;;18.23;12.43;;;1.20;81.00;;;;;;5014583;28;20201;-67
2022/02/13 05:37:18;;;;;;;22.17;13.97;;;1.20;81.10;;;;;;5006825;28;20236;-67
2022/02/13 05:39:45;;;;;;;29.57;14.63;;;1.20;81.00;;;;;;5007739;28;20205;-67
2022/02/13 05:42:12;;;;;;;23.23;13.80;;;1.10;80.90;;;;;;5007396;28;20203;-67
2022/02/13 05:44:40;;;;;;;19.23;12.73;;;1.10;81.00;;;;;;5021789;28;20279;-67
2022/02/13 05:47:08;;;;;;;19.57;13.23;;;1.10;81.00;;;;;;5014803;28;20215;-67
2022/02/13 05:49:35;;;;;;;21.13;14.30;;;1.10;81.10;;;;;;5006808;28;20201;-67
2022/02/13 05:52:03;;;;;;;26.17;13.33;;;1.00;81.20;;;;;;5017150;28;20209;-67
2022/02/13 05:54:30;;;;;;;21.13;13.43;;;1.00;81.30;;;;;;5013515;28;20204;-67
2022/02/13 05:56:57;;;;;;;18.50;13.87;;;1.00;81.30;;;;;;5012199;28;20225;-67
2022/02/13 05:59:24;;;;;;;17.50;13.30;;;1.00;81.60;;;;;;5007055;28;20879;-67
2022/02/13 06:01:55;;;;;;;20.77;14.80;;;1.00;81.80;;;;;;5022213;28;20209;-68
2022/02/13 06:04:24;;;;;;;20.57;13.13;;;1.00;81.90;;;;;;5013592;28;20209;-66
2022/02/13 06:06:55;;;;;;;24.67;15.27;;;1.00;82.00;;;;;;5015223;28;20217;-66
2022/02/13 06:09:24;;;;;;;19.87;13.37;;;1.00;81.90;;;;;;5009769;28;20208;-67
2022/02/13 06:11:51;;;;;;;25.43;14.20;;;0.90;82.00;;;;;;5010889;28;20235;-66
2022/02/13 06:14:20;;;;;;;21.17;14.90;;;0.90;81.90;;;;;;5006961;28;20212;-66
2022/02/13 06:16:50;;;;;;;18.70;13.60;;;0.90;82.10;;;;;;5017625;28;20262;-65
2022/02/13 06:19:17;;;;;;;20.20;13.50;;;0.80;82.50;;;;;;5017948;28;20659;-65
2022/02/13 06:21:44;;;;;;;21.17;13.57;;;0.90;82.80;;;;;;5018344;28;20207;-65
2022/02/13 06:24:11;;;;;;;19.60;12.73;;;0.90;82.80;;;;;;4998579;28;20729;-66
2022/02/13 06:26:39;;;;;;;20.03;13.03;;;0.90;82.70;;;;;;5008907;28;20208;-66
2022/02/13 06:29:08;;;;;;;18.27;12.43;;;0.90;82.60;;;;;;5013397;28;20216;-66
2022/02/13 06:31:35;;;;;;;21.17;12.37;;;0.90;82.40;;;;;;5016256;28;20212;-66
2022/02/13 06:34:02;;;;;;;23.60;13.37;;;0.90;82.30;;;;;;5015887;28;20223;-66
2022/02/13 06:36:29;;;;;;;22.23;12.83;;;0.90;82.10;;;;;;5007242;28;20236;-66
2022/02/13 06:38:56;;;;;;;21.00;13.97;;;0.90;82.00;;;;;;5006573;28;20612;-66
2022/02/13 06:41:24;;;;;;;20.53;12.23;;;0.90;81.90;;;;;;5007222;28;20200;-66
2022/02/13 06:43:51;;;;;;;21.50;12.87;;;1.00;81.80;;;;;;5008413;28;20544;-66
2022/02/13 06:46:18;;;;;;;22.67;12.97;;;1.00;81.80;;;;;;5004722;28;20660;-66
2022/02/13 06:48:45;;;;;;;20.77;13.53;;;1.00;81.80;;;;;;5017599;28;20250;-66
2022/02/13 06:51:12;;;;;;;18.43;11.70;;;1.10;82.00;;;;;;5005280;28;20727;-66
2022/02/13 06:53:39;;;;;;;19.83;13.50;;;1.10;82.30;;;;;;5013558;28;20556;-66
2022/02/13 06:56:07;;;;;;;18.20;12.73;;;1.30;83.00;;;;;;5003193;28;20576;-67
2022/02/13 06:58:34;;;;;;;18.80;12.57;;;1.50;82.80;;;;;;5013520;28;20230;-66
2022/02/13 07:01:02;;;;;;;19.60;11.93;;;1.70;82.00;;;;;;5007076;28;20201;-66
2022/02/13 07:03:29;;;;;;;21.30;13.13;;;2.00;80.80;;;;;;5006445;28;20196;-66
2022/02/13 07:05:57;;;;;;;18.53;12.27;;;2.40;79.50;;;;;;5011675;28;20206;-66
2022/02/13 07:08:24;;;;;;;19.07;12.93;;;2.60;78.20;;;;;;5007365;28;20216;-66
2022/02/13 07:10:51;;;;;;;20.53;12.93;;;3.00;76.70;;;;;;5011620;28;20200;-66
2022/02/13 07:13:19;;;;;;;19.47;13.23;;;3.20;75.30;;;;;;5007789;28;20306;-66
2022/02/13 07:15:46;;;;;;;17.07;12.47;;;3.60;74.60;;;;;;5005799;28;20250;-65
2022/02/13 07:18:13;;;;;;;21.50;14.23;;;3.90;73.00;;;;;;5011346;28;20310;-66
2022/02/13 07:20:40;;;;;;;17.53;12.57;;;4.40;71.80;;;;;;5001098;28;20627;-65
2022/02/13 07:23:08;;;;;;;23.93;13.07;;;4.80;70.40;;;;;;5010460;28;20300;-66
2022/02/13 07:25:35;;;;;;;18.50;12.17;;;5.20;68.80;;;;;;5008483;28;20197;-66
2022/02/13 07:28:58;;;;;;;23.03;13.63;;;5.60;67.50;;;;;;5013864;28;20307;-65
2022/02/13 07:30:50;;;;;;;21.13;12.90;;;5.90;66.30;;;;;;5001495;28;20220;-66
2022/02/13 07:33:17;;;;;;;18.60;12.63;;;6.10;65.70;;;;;;5012698;28;20211;-65
2022/02/13 07:35:45;;;;;;;18.43;12.80;;;6.30;65.30;;;;;;5000410;28;20253;-65
2022/02/13 07:38:12;;;;;;;20.03;14.07;;;6.40;65.10;;;;;;5013552;28;20303;-66
2022/02/13 07:40:40;;;;;;;20.57;13.67;;;6.60;64.80;;;;;;5012829;28;20324;-65
2022/02/13 07:43:07;;;;;;;17.43;13.67;;;6.60;64.50;;;;;;5005583;28;20534;-65
2022/02/13 07:45:34;;;;;;;17.77;13.57;;;6.80;64.40;;;;;;5013819;28;20206;-65
2022/02/13 07:48:02;;;;;;;20.07;13.17;;;6.90;64.10;;;;;;5008110;28;20212;-65
2022/02/13 07:50:29;;;;;;;22.37;14.10;;;6.90;64.00;;;;;;5007899;28;20224;-65
2022/02/13 07:52:56;;;;;;;20.07;14.03;;;7.00;64.00;;;;;;5007258;28;20220;-65
2022/02/13 07:55:23;;;;;;;20.27;14.93;;;7.00;63.90;;;;;;5001581;28;20214;-66
2022/02/13 07:57:50;;;;;;;20.10;14.97;;;7.00;64.10;;;;;;5011667;28;20239;-65
2022/02/13 08:00:17;;;;;;;18.83;13.87;;;6.90;64.80;;;;;;5011855;28;20207;-65
2022/02/13 08:02:45;;;;;;;26.13;14.77;;;6.70;65.60;;;;;;5000286;28;20194;-66
2022/02/13 08:05:13;;;;;;;21.63;13.93;;;6.60;66.60;;;;;;4999967;28;20202;-65
2022/02/13 08:07:46;;;;;;;18.77;13.33;;;6.40;67.20;;;;;;5012325;28;20277;-65
2022/02/13 08:10:15;;;;;;;16.23;13.00;;;6.30;67.90;;;;;;5006316;28;20214;-65
2022/02/13 08:12:42;;;;;;;20.93;14.10;;;6.20;68.70;;;;;;5003391;28;20248;-65
2022/02/13 08:15:10;;;;;;;20.87;14.30;;;6.10;69.30;;;;;;5016214;28;20224;-65
2022/02/13 08:17:37;;;;;;;20.93;13.87;;;6.10;70.00;;;;;;5013980;28;20278;-65
2022/02/13 08:20:07;;;;;;;19.83;12.93;;;6.00;70.50;;;;;;5012790;28;20202;-65
2022/02/13 08:22:35;;;;;;;16.87;12.90;;;6.00;70.90;;;;;;5007795;28;20210;-65
2022/02/13 08:25:09;;;;;;;20.10;13.53;;;6.00;70.90;;;;;;5009707;28;20237;-65
2022/02/13 08:27:36;;;;;;;21.40;14.37;;;6.00;70.80;;;;;;5004642;28;20604;-65
2022/02/13 08:30:04;;;;;;;18.57;13.37;;;6.10;70.50;;;;;;5013433;28;20207;-65
2022/02/13 08:32:31;;;;;;;20.00;13.07;;;6.10;70.40;;;;;;5013489;28;20207;-65
2022/02/13 08:34:58;;;;;;;22.67;13.83;;;6.20;70.40;;;;;;4998923;28;20211;-66
2022/02/13 08:37:25;;;;;;;25.07;13.73;;;6.10;70.50;;;;;;4995385;28;20227;-66
2022/02/13 08:39:53;;;;;;;19.40;13.97;;;6.20;70.70;;;;;;4996964;28;20203;-67
2022/02/13 08:42:20;;;;;;;21.27;12.70;;;6.20;70.80;;;;;;4998584;28;20274;-67
2022/02/13 08:44:47;;;;;;;18.13;13.40;;;6.30;70.90;;;;;;5006130;28;20202;-67
2022/02/13 08:47:16;;;;;;;21.70;13.97;;;6.30;70.80;;;;;;5006052;28;20218;-67
2022/02/13 08:49:44;;;;;;;19.53;12.90;;;6.40;70.40;;;;;;5005498;28;20647;-67
2022/02/13 08:52:12;;;;;;;19.40;13.30;;;6.50;70.30;;;;;;5004184;28;20565;-67
2022/02/13 08:54:39;;;;;;;24.00;14.33;;;6.60;70.40;;;;;;5011994;28;20214;-67
2022/02/13 08:57:06;;;;;;;18.17;12.97;;;6.60;70.20;;;;;;5003869;28;20522;-67
2022/02/13 08:59:33;;;;;;;17.60;14.17;;;6.70;70.00;;;;;;5003868;28;20639;-67
2022/02/13 09:02:01;;;;;;;19.77;13.53;;;6.80;69.60;;;;;;4999462;28;20204;-67
2022/02/13 09:04:28;;;;;;;20.43;12.20;;;7.00;69.50;;;;;;5005516;28;20203;-67
2022/02/13 09:06:55;;;;;;;15.27;12.07;;;7.10;68.70;;;;;;5005503;28;20542;-67
2022/02/13 09:09:23;;;;;;;14.13;11.87;;;7.20;67.80;;;;;;5013350;28;20222;-67
2022/02/13 09:11:50;;;;;;;17.10;12.30;;;7.30;67.00;;;;;;5000549;28;20211;-67
2022/02/13 09:14:17;;;;;;;15.70;12.63;;;7.30;67.00;;;;;;5007351;28;20227;-67
2022/02/13 09:16:44;;;;;;;17.00;12.30;;;7.40;66.80;;;;;;5014017;28;20206;-67
2022/02/13 09:19:11;;;;;;;18.93;11.23;;;7.40;66.60;;;;;;5008430;28;20309;-67
2022/02/13 09:21:38;;;;;;;15.53;11.20;;;7.50;66.00;;;;;;5007563;28;20207;-67
2022/02/13 09:24:06;;;;;;;14.80;11.47;;;7.60;65.70;;;;;;5007504;28;20302;-67
2022/02/13 09:26:35;;;;;;;18.43;11.53;;;7.70;65.70;;;;;;5007097;28;20219;-67
2022/02/13 09:29:02;;;;;;;14.93;10.20;;;7.80;65.80;;;;;;5010181;28;20666;-67
2022/02/13 09:31:29;;;;;;;14.87;9.70;;;7.90;65.80;;;;;;5004997;28;20216;-67
2022/02/13 09:33:57;;;;;;;18.73;10.17;;;8.00;65.50;;;;;;5004822;28;20672;-67
2022/02/13 09:36:23;;;;;;;12.50;10.67;;;8.00;63.70;;;;;;5005773;28;20247;-67
2022/02/13 09:38:51;;;;;;;15.33;10.43;;;8.00;62.80;;;;;;5011384;28;20211;-67
2022/02/13 09:41:18;;;;;;;14.23;10.37;;;7.90;62.90;;;;;;5014716;28;20200;-67
2022/02/13 09:43:46;;;;;;;16.50;10.30;;;7.90;63.00;;;;;;4998710;28;20231;-67
2022/02/13 09:46:14;;;;;;;15.33;10.50;;;7.90;63.10;;;;;;5004559;28;20240;-65
2022/02/13 09:48:42;;;;;;;15.03;9.87;;;7.90;63.30;;;;;;5004925;28;20322;-65
2022/02/13 09:51:11;;;;;;;14.30;10.43;;;7.90;63.30;;;;;;5005637;28;20198;-65
2022/02/13 09:53:38;;;;;;;13.93;11.00;;;8.00;63.50;;;;;;5006840;28;20284;-65
2022/02/13 09:56:06;;;;;;;17.90;10.07;;;8.10;63.50;;;;;;5004561;28;20215;-65
2022/02/13 09:58:34;;;;;;;14.13;10.17;;;8.20;63.10;;;;;;5006307;28;20271;-65
2022/02/13 10:01:04;;;;;;;10.43;8.97;;;8.30;62.20;;;;;;5007892;28;20275;-65
2022/02/13 10:03:32;;;;;;;13.90;8.53;;;8.40;61.90;;;;;;5004357;28;20204;-65
2022/02/13 10:06:01;;;;;;;12.93;8.93;;;8.50;61.70;;;;;;5010396;28;20577;-67
2022/02/13 10:08:44;;;;;;;10.47;8.57;;;8.70;61.40;;;;;;5009591;28;20208;-67
2022/02/13 10:11:23;;;;;;;10.50;8.23;;;8.80;61.20;;;;;;5010645;28;20214;-67
2022/02/13 10:14:05;;;;;;;13.17;7.97;;;8.90;61.10;;;;;;4999979;28;20303;-67
2022/02/13 10:16:45;;;;;;;11.73;8.20;;;9.00;60.40;;;;;;4997615;28;20215;-67
2022/02/13 10:19:19;;;;;;;20.00;9.67;;;9.00;60.20;;;;;;5008387;28;20686;-67
2022/02/13 10:21:50;;;;;;;15.70;9.40;;;9.10;60.10;;;;;;5014195;28;20203;-67
2022/02/13 10:24:17;;;;;;;10.40;8.70;;;9.10;59.90;;;;;;5005322;28;20219;-67
2022/02/13 10:26:57;;;;;;;10.00;8.57;;;9.10;60.00;;;;;;5003721;28;20213;-67
2022/02/13 10:29:30;;;;;;;10.43;7.97;;;9.10;60.10;;;;;;5005076;28;20651;-68
2022/02/13 10:32:11;;;;;;;12.87;8.47;;;9.20;60.20;;;;;;5008403;28;20295;-65
2022/02/13 10:34:40;;;;;;;13.73;7.97;;;9.20;60.80;;;;;;5006711;28;20654;-65
2022/02/13 10:37:07;;;;;;;9.73;7.87;;;9.30;60.30;;;;;;5004814;28;20650;-65
2022/02/13 10:39:46;;;;;;;9.77;7.57;;;9.20;59.90;;;;;;5010102;28;20244;-65
2022/02/13 10:42:14;;;;;;;12.60;8.07;;;9.30;60.50;;;;;;5006469;28;20200;-65
2022/02/13 10:44:41;;;;;;;10.80;8.17;;;9.30;60.50;;;;;;5010044;28;20258;-65
2022/02/13 10:47:23;;;;;;;11.30;8.23;;;9.40;60.60;;;;;;5014098;28;20286;-65
2022/02/13 10:49:53;;;;;;;10.80;8.23;;;9.40;60.90;;;;;;4996419;28;20277;-65
2022/02/13 10:52:21;;;;;;;12.37;6.97;;;9.50;60.70;;;;;;5010012;28;20203;-65
2022/02/13 10:54:49;;;;;;;10.63;8.70;;;9.60;60.80;;;;;;5011881;28;20663;-65
2022/02/13 10:57:16;;;;;;;10.33;7.37;;;9.70;60.30;;;;;;5003852;28;20547;-65
2022/02/13 10:59:43;;;;;;;10.73;7.07;;;9.70;60.30;;;;;;5001659;28;20237;-65
2022/02/13 11:02:12;;;;;;;9.63;7.70;;;9.80;60.10;;;;;;5002953;28;20219;-65
2022/02/13 11:04:40;;;;;;;10.33;7.87;;;9.80;59.30;;;;;;5002138;28;20632;-65
2022/02/13 11:07:09;;;;;;;10.07;7.80;;;9.80;59.10;;;;;;5003617;28;20210;-65
2022/02/13 11:09:37;;;;;;;9.77;7.57;;;9.80;59.00;;;;;;5003224;28;20211;-65
2022/02/13 11:12:05;;;;;;;10.33;7.37;;;9.80;58.60;;;;;;5007936;28;20200;-65
2022/02/13 11:14:36;;;;;;;10.13;7.93;;;9.80;58.20;;;;;;4999070;28;20217;-65
2022/02/13 11:17:04;;;;;;;10.50;7.57;;;9.80;58.60;;;;;;4997938;28;20215;-65
2022/02/13 11:19:33;;;;;;;11.53;7.90;;;9.80;59.60;;;;;;4997719;28;20259;-65
2022/02/13 11:22:02;;;;;;;9.23;6.93;;;9.80;59.50;;;;;;4995298;28;20201;-65
2022/02/13 11:24:37;;;;;;;10.30;7.10;;;9.90;59.30;;;;;;4995847;28;20521;-65
2022/02/13 11:27:05;;;;;;;11.90;8.67;;;9.90;59.30;;;;;;5010977;28;20207;-65
2022/02/13 11:29:54;;;;;;;10.33;7.60;;;10.00;59.10;;;;;;5009671;28;20228;-65
2022/02/13 11:32:39;;;;;;;7.63;6.60;;;10.10;59.20;;;;;;5006808;28;20584;-65
2022/02/13 11:35:09;;;;;;;8.67;7.20;;;10.10;59.50;;;;;;5003938;28;20216;-65
2022/02/13 11:37:48;;;;;;;12.23;7.57;;;10.20;58.70;;;;;;5003437;28;20245;-65
2022/02/13 11:40:33;;;;;;;12.17;7.77;;;10.30;58.00;;;;;;5003544;28;20204;-65
2022/02/13 11:43:08;;;;;;;8.27;5.87;;;10.30;58.50;;;;;;5003046;28;20235;-65
2022/02/13 11:45:46;;;;;;;8.07;5.90;;;10.40;58.10;;;;;;5007638;28;20647;-65
2022/02/13 11:48:32;;;;;;;8.23;5.93;;;10.50;56.60;;;;;;5009498;28;20205;-65
2022/02/13 11:50:59;;;;;;;6.90;6.20;;;10.60;56.60;;;;;;4996353;28;20219;-65
2022/02/13 11:53:29;;;;;;;7.67;5.10;;;10.70;55.70;;;;;;5002116;28;20507;-65
2022/02/13 11:56:28;;;;;;;9.27;6.63;;;10.80;55.30;;;;;;5012532;28;20205;-65
2022/02/13 11:58:56;;;;;;;9.40;5.27;;;11.00;54.50;;;;;;4995710;28;20232;-65
2022/02/13 12:01:35;;;;;;;7.07;5.57;;;11.00;54.20;;;;;;4997152;28;20202;-65
2022/02/13 12:04:09;;;;;;;9.47;4.87;;;11.10;53.90;;;;;;5016490;28;20664;-65
2022/02/13 12:06:36;;;;;;;8.27;5.27;;;11.10;53.90;;;;;;5007716;28;20662;-65
2022/02/13 12:09:11;;;;;;;10.03;5.70;;;11.10;53.10;;;;;;5009375;28;20210;-66
2022/02/13 12:11:42;;;;;;;5.97;5.17;;;11.10;53.10;;;;;;5005617;28;20300;-65
2022/02/13 12:14:21;;;;;;;7.93;5.20;;;11.10;53.30;;;;;;5003474;28;20244;-65
2022/02/13 12:16:57;;;;;;;5.63;5.00;;;11.10;52.80;;;;;;5004123;28;20655;-65
2022/02/13 12:19:27;;;;;;;7.97;4.80;;;11.10;52.30;;;;;;5002309;28;20253;-65
2022/02/13 12:22:07;;;;;;;7.53;5.33;;;11.20;52.00;;;;;;4997563;28;20285;-65
2022/02/13 12:24:34;;;;;;;5.87;5.27;;;11.30;50.80;;;;;;4996281;28;20200;-65
2022/02/13 12:27:03;;;;;;;6.50;4.73;;;11.30;50.60;;;;;;5012253;28;20287;-65
2022/02/13 12:29:30;;;;;;;8.00;4.03;;;11.40;48.80;;;;;;5012924;28;20221;-65
2022/02/13 12:32:06;;;;;;;5.83;4.37;;;11.40;50.10;;;;;;5011061;28;20232;-65
2022/02/13 12:34:56;;;;;;;5.90;4.00;;;11.50;48.50;;;;;;5000801;28;20271;-65
2022/02/13 12:37:43;;;;;;;7.27;4.57;;;11.50;48.30;;;;;;5001867;28;20237;-65
2022/02/13 12:40:20;;;;;;;6.70;5.50;;;11.60;49.70;;;;;;4998863;28;20233;-65
2022/02/13 12:42:53;;;;;;;6.37;4.77;;;11.70;49.20;;;;;;5001853;28;20204;-65
2022/02/13 12:45:26;;;;;;;5.67;4.30;;;11.70;48.50;;;;;;5001747;28;20263;-65
2022/02/13 12:48:00;;;;;;;3.97;3.57;;;11.80;47.40;;;;;;5001660;28;20240;-65
2022/02/13 12:50:52;;;;;;;5.20;4.47;;;11.80;48.60;;;;;;5000142;28;20213;-65
2022/02/13 12:53:24;;;;;;;4.60;4.10;;;11.90;48.10;;;;;;5005509;28;20217;-65